Time;durP1;ratioP1;P1;durP2;ratioP2;P2;SDS_P1;SDS_P2;PMS_P1;PMS_P2;Temp;Humidity;BMP_temperature;BMP_pressure;BME280_temperature;BME280_humidity;BME280_pressure;Samples;Min_cycle;Max_cycle;Signal;HPM_P1;HPM_P2
2021/06/09 00:00:12;;;;;;;;;;;15.30;99.90;;;;;;8362133;28;20366;-64
2021/06/09 00:04:12;;;;;;;;;;;15.10;99.90;;;;;;8362072;28;19947;-64
2021/06/09 00:08:13;;;;;;;;;;;15.10;99.90;;;;;;8362040;28;20426;-64
2021/06/09 00:12:13;;;;;;;;;;;14.80;99.90;;;;;;8361842;28;19909;-64
2021/06/09 00:16:15;;;;;;;;;;;14.80;99.90;;;;;;8361808;28;19995;-64
2021/06/09 00:20:19;;;;;;;;;;;14.60;99.90;;;;;;8361863;28;19915;-64
2021/06/09 00:24:20;;;;;;;;;;;14.30;99.90;;;;;;8361702;28;19920;-64
2021/06/09 00:28:21;;;;;;;;;;;14.20;99.90;;;;;;8343608;28;20330;-64
2021/06/09 00:32:21;;;;;;;;;;;14.10;99.90;;;;;;8361497;28;19943;-64
2021/06/09 00:36:21;;;;;;;;;;;14.20;99.90;;;;;;8361224;28;20413;-64
2021/06/09 00:40:22;;;;;;;;;;;14.00;99.90;;;;;;8361341;28;19952;-64
2021/06/09 00:44:23;;;;;;;;;;;14.10;99.90;;;;;;8361217;28;19920;-65
2021/06/09 00:48:26;;;;;;;;;;;14.10;99.90;;;;;;8361075;28;20455;-64
2021/06/09 00:52:27;;;;;;;;;;;14.20;99.90;;;;;;8361369;28;19959;-64
2021/06/09 00:56:27;;;;;;;;;;;14.20;99.90;;;;;;8361077;28;19986;-64
2021/06/09 01:00:28;;;;;;;;;;;14.00;99.90;;;;;;8360652;28;19921;-64
2021/06/09 01:04:28;;;;;;;;;;;13.90;99.90;;;;;;8360276;28;19917;-64
2021/06/09 01:08:29;;;;;;;;;;;13.90;99.90;;;;;;8360456;28;19917;-64
2021/06/09 01:12:30;;;;;;;;;;;13.70;99.90;;;;;;8360658;28;20051;-64
2021/06/09 01:16:30;;;;;;;;;;;13.60;99.90;;;;;;8360248;28;20339;-64
2021/06/09 01:20:32;;;;;;;;;;;13.60;99.90;;;;;;8359659;28;19909;-64
2021/06/09 01:24:33;;;;;;;;;;;13.50;99.90;;;;;;8359818;28;19932;-64
2021/06/09 01:28:35;;;;;;;;;;;13.70;99.90;;;;;;8359840;28;19958;-64
2021/06/09 01:32:35;;;;;;;;;;;13.60;99.90;;;;;;8342055;28;20000;-64
2021/06/09 01:36:37;;;;;;;;;;;13.60;99.90;;;;;;8359740;28;19915;-64
2021/06/09 01:40:38;;;;;;;;;;;13.30;99.90;;;;;;8359644;28;19909;-64
2021/06/09 01:44:39;;;;;;;;;;;13.30;99.90;;;;;;8341588;28;19916;-64
2021/06/09 01:48:40;;;;;;;;;;;13.40;99.90;;;;;;8359328;28;20426;-64
2021/06/09 01:52:41;;;;;;;;;;;13.20;99.90;;;;;;8359453;28;19915;-64
2021/06/09 01:56:42;;;;;;;;;;;13.10;99.90;;;;;;8359217;28;19913;-64
2021/06/09 02:00:45;;;;;;;;;;;12.90;99.90;;;;;;8382783;22;20026;-66
2021/06/09 02:04:45;;;;;;;;;;;13.30;99.90;;;;;;8358315;28;20406;-68
2021/06/09 02:08:46;;;;;;;;;;;13.00;99.90;;;;;;8359042;28;19920;-68
2021/06/09 02:12:48;;;;;;;;;;;13.00;99.90;;;;;;8359172;28;20285;-66
2021/06/09 02:16:52;;;;;;;;;;;13.40;99.90;;;;;;8357214;28;20358;-66
2021/06/09 02:20:56;;;;;;;;;;;13.00;99.90;;;;;;8358909;28;19908;-67
2021/06/09 02:24:57;;;;;;;;;;;13.10;99.90;;;;;;8358940;28;19970;-67
2021/06/09 02:29:00;;;;;;;;;;;13.00;99.90;;;;;;8358722;28;20389;-67
2021/06/09 02:33:02;;;;;;;;;;;13.00;99.90;;;;;;8359661;28;19909;-66
2021/06/09 02:37:03;;;;;;;;;;;13.10;99.90;;;;;;8365101;28;19950;-67
2021/06/09 02:41:04;;;;;;;;;;;13.00;99.90;;;;;;8365000;28;20267;-67
2021/06/09 02:45:09;;;;;;;;;;;13.30;99.90;;;;;;8364807;28;20290;-67
2021/06/09 02:49:11;;;;;;;;;;;13.40;99.90;;;;;;8364573;28;20394;-67
2021/06/09 02:53:11;;;;;;;;;;;13.40;99.90;;;;;;8363628;28;19963;-66
2021/06/09 02:57:25;;;;;;;;;;;13.30;99.90;;;;;;8364449;28;19909;-66
2021/06/09 03:01:31;;;;;;;;;;;13.20;99.90;;;;;;8363282;28;19917;-67
2021/06/09 03:05:35;;;;;;;;;;;13.40;99.90;;;;;;8364137;28;20324;-67
2021/06/09 03:09:54;;;;;;;;;;;13.40;99.90;;;;;;8363965;28;19928;-66
2021/06/09 03:14:03;;;;;;;;;;;13.40;99.90;;;;;;8364084;28;19954;-67
2021/06/09 03:18:07;;;;;;;;;;;13.50;99.90;;;;;;8363568;28;19909;-68
2021/06/09 03:22:16;;;;;;;;;;;13.30;99.90;;;;;;8362572;28;19947;-67
2021/06/09 03:26:22;;;;;;;;;;;13.30;99.90;;;;;;8363064;28;19998;-67
2021/06/09 03:30:23;;;;;;;;;;;13.30;99.90;;;;;;8360833;28;19920;-67
2021/06/09 03:34:44;;;;;;;;;;;13.20;99.90;;;;;;8347394;28;19975;-67
2021/06/09 03:38:48;;;;;;;;;;;13.30;99.90;;;;;;8343342;28;20305;-67
2021/06/09 03:42:51;;;;;;;;;;;13.60;99.90;;;;;;8378691;28;20247;-67
2021/06/09 03:46:52;;;;;;;;;;;13.20;99.90;;;;;;8375091;28;20042;-67
2021/06/09 03:50:54;;;;;;;;;;;13.20;99.90;;;;;;8378247;28;20022;-67
2021/06/09 03:54:55;;;;;;;;;;;13.20;99.90;;;;;;8359530;28;19913;-68
2021/06/09 03:58:58;;;;;;;;;;;13.20;99.90;;;;;;8362087;28;19917;-66
2021/06/09 04:02:58;;;;;;;;;;;13.20;99.90;;;;;;8358326;28;20421;-67
2021/06/09 04:07:00;;;;;;;;;;;13.50;99.90;;;;;;8331615;28;19929;-67
2021/06/09 04:11:01;;;;;;;;;;;13.40;99.90;;;;;;8328867;28;20287;-68
2021/06/09 04:15:02;;;;;;;;;;;13.40;99.90;;;;;;8329299;28;19913;-67
2021/06/09 04:19:04;;;;;;;;;;;13.40;99.90;;;;;;8328701;28;20004;-68
2021/06/09 04:23:05;;;;;;;;;;;13.40;99.90;;;;;;8337985;28;19912;-67
2021/06/09 04:27:35;;;;;;;;;;;13.50;99.90;;;;;;8361906;28;19920;-67
2021/06/09 04:31:36;;;;;;;;;;;14.40;99.90;;;;;;8343925;28;19916;-66
2021/06/09 04:35:41;;;;;;;;;;;15.00;99.90;;;;;;8335863;28;19954;-67
2021/06/09 04:39:41;;;;;;;;;;;15.10;99.90;;;;;;8327979;28;20279;-68
2021/06/09 04:43:42;;;;;;;;;;;15.40;99.90;;;;;;8348314;28;19921;-67
2021/06/09 04:47:43;;;;;;;;;;;15.50;99.90;;;;;;8327398;28;19921;-66
2021/06/09 04:51:43;;;;;;;;;;;15.50;99.90;;;;;;8326385;28;19996;-67
2021/06/09 04:55:45;;;;;;;;;;;15.40;99.90;;;;;;8356676;28;19909;-67
2021/06/09 04:59:46;;;;;;;;;;;15.50;99.90;;;;;;8350358;28;19924;-68
2021/06/09 05:03:46;;;;;;;;;;;15.70;99.90;;;;;;8346867;28;20283;-68
2021/06/09 05:07:46;;;;;;;;;;;16.00;99.90;;;;;;8349231;28;20061;-68
2021/06/09 05:11:50;;;;;;;;;;;16.30;99.90;;;;;;8356761;28;19913;-71
2021/06/09 05:15:57;;;;;;;;;;;16.50;99.90;;;;;;8342270;28;20330;-70
2021/06/09 05:19:58;;;;;;;;;;;16.70;99.90;;;;;;8350786;28;19920;-71
2021/06/09 05:23:59;;;;;;;;;;;17.10;99.90;;;;;;8357977;28;19928;-70
2021/06/09 05:28:01;;;;;;;;;;;17.50;99.90;;;;;;8333555;28;19909;-67
2021/06/09 05:32:03;;;;;;;;;;;17.80;99.90;;;;;;8348598;28;19923;-67
2021/06/09 05:36:04;;;;;;;;;;;18.00;99.90;;;;;;8357923;28;19915;-67
2021/06/09 05:40:09;;;;;;;;;;;18.40;99.90;;;;;;8358161;28;19920;-67
2021/06/09 05:44:13;;;;;;;;;;;18.70;99.90;;;;;;8358516;28;20360;-68
2021/06/09 05:48:13;;;;;;;;;;;18.90;99.90;;;;;;8357878;28;19919;-67
2021/06/09 05:52:14;;;;;;;;;;;19.00;99.90;;;;;;8358907;28;19909;-67
2021/06/09 05:56:15;;;;;;;;;;;19.20;99.90;;;;;;8350472;28;19967;-66
2021/06/09 06:00:18;;;;;;;;;;;19.10;99.90;;;;;;8358825;28;20374;-66
2021/06/09 06:04:18;;;;;;;;;;;19.10;99.90;;;;;;8347104;28;19918;-67
2021/06/09 06:08:19;;;;;;;;;;;19.10;99.90;;;;;;8356046;28;19932;-65
2021/06/09 06:12:23;;;;;;;;;;;19.40;99.90;;;;;;8388784;28;19916;-67
2021/06/09 06:16:24;;;;;;;;;;;19.50;99.90;;;;;;8384901;28;20512;-66
2021/06/09 06:20:25;;;;;;;;;;;19.80;99.90;;;;;;8341124;28;19917;-66
2021/06/09 06:24:26;;;;;;;;;;;19.70;99.90;;;;;;8347379;28;20008;-66
2021/06/09 06:28:26;;;;;;;;;;;19.80;99.90;;;;;;8346612;28;19917;-67
2021/06/09 06:32:27;;;;;;;;;;;19.90;99.90;;;;;;8348887;28;19963;-67
2021/06/09 06:36:28;;;;;;;;;;;20.00;99.90;;;;;;8334117;28;19983;-66
2021/06/09 06:40:31;;;;;;;;;;;20.20;99.90;;;;;;8342720;28;19909;-66
2021/06/09 06:44:32;;;;;;;;;;;20.60;99.90;;;;;;8344746;28;20303;-66
2021/06/09 06:48:34;;;;;;;;;;;21.00;99.90;;;;;;8345249;28;19955;-66
2021/06/09 06:52:34;;;;;;;;;;;21.40;99.90;;;;;;8358289;28;20001;-66
2021/06/09 06:56:35;;;;;;;;;;;21.60;99.90;;;;;;8368667;28;20352;-66
2021/06/09 07:00:36;;;;;;;;;;;21.70;99.90;;;;;;8361321;28;19917;-67
2021/06/09 07:04:36;;;;;;;;;;;22.00;99.90;;;;;;8346182;28;19932;-66
2021/06/09 07:08:37;;;;;;;;;;;22.10;99.90;;;;;;8355209;28;19928;-63
2021/06/09 07:12:38;;;;;;;;;;;21.80;99.90;;;;;;8334939;28;19933;-63
2021/06/09 07:16:40;;;;;;;;;;;22.00;99.90;;;;;;8344300;28;20382;-62
2021/06/09 07:20:41;;;;;;;;;;;22.30;99.90;;;;;;8360673;28;20532;-64
2021/06/09 07:24:42;;;;;;;;;;;22.40;99.90;;;;;;8361425;28;19916;-66
2021/06/09 07:28:50;;;;;;;;;;;22.40;99.90;;;;;;8363337;28;19909;-65
2021/06/09 07:32:50;;;;;;;;;;;21.90;99.90;;;;;;8359906;28;20014;-67
2021/06/09 07:36:52;;;;;;;;;;;22.20;99.90;;;;;;8348539;28;19913;-67
2021/06/09 07:41:02;;;;;;;;;;;22.60;99.90;;;;;;8359389;28;19913;-66
2021/06/09 07:45:10;;;;;;;;;;;22.80;99.90;;;;;;8361717;28;20015;-67
2021/06/09 07:49:11;;;;;;;;;;;22.70;99.90;;;;;;8353189;28;19913;-66
2021/06/09 07:53:12;;;;;;;;;;;21.90;99.90;;;;;;8348322;28;20530;-67
2021/06/09 07:57:13;;;;;;;;;;;21.50;99.90;;;;;;8344836;28;19971;-66
2021/06/09 08:01:14;;;;;;;;;;;21.30;99.90;;;;;;8367946;22;19924;-63
2021/06/09 08:05:14;;;;;;;;;;;21.30;99.90;;;;;;8343314;28;19921;-62
2021/06/09 08:09:15;;;;;;;;;;;21.50;99.90;;;;;;8343776;28;19913;-62
2021/06/09 08:13:16;;;;;;;;;;;21.50;99.90;;;;;;8343042;28;20294;-62
2021/06/09 08:17:20;;;;;;;;;;;21.40;99.90;;;;;;8344619;28;19955;-62
2021/06/09 08:21:24;;;;;;;;;;;21.80;99.90;;;;;;8342304;28;19916;-62
2021/06/09 08:25:25;;;;;;;;;;;21.50;99.90;;;;;;8338942;28;19928;-61
2021/06/09 08:29:25;;;;;;;;;;;21.60;99.90;;;;;;8336617;28;19923;-62
2021/06/09 08:33:26;;;;;;;;;;;21.80;99.90;;;;;;8334260;28;19963;-62
2021/06/09 08:37:27;;;;;;;;;;;22.10;99.90;;;;;;8337029;28;19917;-62
2021/06/09 08:41:29;;;;;;;;;;;22.40;99.90;;;;;;8351411;28;19909;-62
2021/06/09 08:45:31;;;;;;;;;;;22.80;99.90;;;;;;8360024;28;19917;-62
2021/06/09 08:49:32;;;;;;;;;;;23.00;99.90;;;;;;8354892;28;19909;-62
2021/06/09 08:53:34;;;;;;;;;;;22.80;99.90;;;;;;8339518;28;19975;-62
2021/06/09 08:57:35;;;;;;;;;;;22.40;99.90;;;;;;8351625;28;19916;-62
2021/06/09 09:01:35;;;;;;;;;;;22.10;99.90;;;;;;8332718;28;20310;-62
2021/06/09 09:05:36;;;;;;;;;;;22.20;99.90;;;;;;8342057;28;19925;-62
2021/06/09 09:09:37;;;;;;;;;;;22.70;99.90;;;;;;8359640;28;19913;-62
2021/06/09 09:13:37;;;;;;;;;;;23.20;99.90;;;;;;8343147;28;19940;-62
2021/06/09 09:17:51;;;;;;;;;;;24.20;99.90;;;;;;8331553;28;19917;-62
2021/06/09 09:21:52;;;;;;;;;;;24.80;99.90;;;;;;8329565;28;20000;-61
2021/06/09 09:25:54;;;;;;;;;;;24.50;99.90;;;;;;8336492;28;19921;-61
2021/06/09 09:30:18;;;;;;;;;;;23.50;99.90;;;;;;8336875;28;19916;-62
2021/06/09 09:34:30;;;;;;;;;;;23.00;99.90;;;;;;8344280;28;19920;-62
2021/06/09 09:38:31;;;;;;;;;;;23.10;99.90;;;;;;8332962;28;20004;-62
2021/06/09 09:42:35;;;;;;;;;;;23.40;99.90;;;;;;8337851;28;20327;-62
2021/06/09 09:46:43;;;;;;;;;;;23.80;99.90;;;;;;8333395;28;19913;-63
2021/06/09 09:50:49;;;;;;;;;;;24.60;99.90;;;;;;8320808;28;19913;-62
2021/06/09 09:54:58;;;;;;;;;;;25.00;99.90;;;;;;8312979;28;19921;-62
2021/06/09 09:59:03;;;;;;;;;;;25.50;99.90;;;;;;8304013;28;19976;-62
2021/06/09 10:03:32;;;;;;;;;;;26.00;99.90;;;;;;8310247;28;19928;-62
2021/06/09 10:07:33;;;;;;;;;;;26.30;99.90;;;;;;8343824;28;19913;-64
2021/06/09 10:11:37;;;;;;;;;;;26.30;99.90;;;;;;8357130;28;19917;-64
2021/06/09 10:15:47;;;;;;;;;;;26.40;99.90;;;;;;8353816;28;19920;-64
2021/06/09 10:20:06;;;;;;;;;;;27.20;99.90;;;;;;8325591;28;19921;-64
2021/06/09 10:24:08;;;;;;;;;;;26.80;99.90;;;;;;8340196;28;20040;-64
2021/06/09 10:28:10;;;;;;;;;;;26.10;99.90;;;;;;8336842;28;20310;-64
2021/06/09 10:32:12;;;;;;;;;;;26.20;99.90;;;;;;8339476;28;19917;-64
2021/06/09 10:36:14;;;;;;;;;;;26.90;99.90;;;;;;8339160;28;20326;-62
2021/06/09 10:40:16;;;;;;;;;;;27.90;99.90;;;;;;8339330;28;20306;-63
2021/06/09 10:44:18;;;;;;;;;;;28.60;99.90;;;;;;8336988;28;19921;-63
2021/06/09 10:48:21;;;;;;;;;;;28.90;99.90;;;;;;8338775;28;20066;-63
2021/06/09 10:52:22;;;;;;;;;;;29.10;99.90;;;;;;8339067;28;19909;-63
2021/06/09 10:56:24;;;;;;;;;;;30.10;99.90;;;;;;8349518;28;19927;-62
2021/06/09 11:00:24;;;;;;;;;;;30.90;99.90;;;;;;8341236;28;19921;-62
2021/06/09 11:04:25;;;;;;;;;;;31.30;99.90;;;;;;8347389;28;19970;-63
2021/06/09 11:08:27;;;;;;;;;;;31.70;99.90;;;;;;8342118;28;19917;-63
2021/06/09 11:12:28;;;;;;;;;;;32.10;94.70;;;;;;8363564;28;19944;-62
2021/06/09 11:16:28;;;;;;;;;;;32.20;93.30;;;;;;8363151;28;19916;-63
2021/06/09 11:20:34;;;;;;;;;;;32.40;92.60;;;;;;8357858;28;20406;-62
2021/06/09 11:24:34;;;;;;;;;;;31.70;91.60;;;;;;8329274;28;19924;-62
2021/06/09 11:28:39;;;;;;;;;;;30.00;92.10;;;;;;8330133;28;20264;-62
2021/06/09 11:32:42;;;;;;;;;;;29.40;92.20;;;;;;8352640;28;19959;-62
2021/06/09 11:36:43;;;;;;;;;;;28.60;95.00;;;;;;8360892;28;19913;-62
2021/06/09 11:40:49;;;;;;;;;;;28.90;96.40;;;;;;8344434;28;20371;-62
2021/06/09 11:44:50;;;;;;;;;;;28.70;95.10;;;;;;8340516;28;19967;-62
2021/06/09 11:48:52;;;;;;;;;;;28.70;95.30;;;;;;8345144;28;19908;-63
2021/06/09 11:53:12;;;;;;;;;;;28.70;97.40;;;;;;8344476;28;19935;-62
2021/06/09 11:57:18;;;;;;;;;;;27.90;97.00;;;;;;8343938;28;19913;-62
2021/06/09 12:01:20;;;;;;;;;;;26.20;99.90;;;;;;8338944;28;20592;-63
2021/06/09 12:05:21;;;;;;;;;;;25.50;99.90;;;;;;8339635;28;19949;-63
2021/06/09 12:09:21;;;;;;;;;;;25.60;99.90;;;;;;8342789;28;19928;-63
2021/06/09 12:13:25;;;;;;;;;;;25.40;99.90;;;;;;8339411;28;19982;-62
2021/06/09 12:17:27;;;;;;;;;;;24.70;99.90;;;;;;8345984;28;20388;-63
2021/06/09 12:21:28;;;;;;;;;;;24.10;99.90;;;;;;8344774;28;19956;-62
2021/06/09 12:25:29;;;;;;;;;;;24.00;99.90;;;;;;8328402;28;20580;-62
2021/06/09 12:29:31;;;;;;;;;;;24.70;99.90;;;;;;8347984;28;20440;-63
2021/06/09 12:33:35;;;;;;;;;;;25.30;99.90;;;;;;8346681;28;19932;-62
2021/06/09 12:37:37;;;;;;;;;;;26.00;99.90;;;;;;8356197;28;19913;-62
2021/06/09 12:41:38;;;;;;;;;;;26.90;99.90;;;;;;8334262;28;20348;-62
2021/06/09 12:45:43;;;;;;;;;;;27.10;99.90;;;;;;8344417;28;19942;-63
2021/06/09 12:49:44;;;;;;;;;;;26.30;99.90;;;;;;8342181;28;19948;-62
2021/06/09 12:53:46;;;;;;;;;;;25.40;99.90;;;;;;8338406;28;19913;-63
2021/06/09 12:57:46;;;;;;;;;;;25.00;99.90;;;;;;8341725;28;19917;-63
2021/06/09 13:01:55;;;;;;;;;;;24.70;99.90;;;;;;8316479;28;20418;-63
2021/06/09 13:06:00;;;;;;;;;;;25.20;99.90;;;;;;8325109;28;19916;-62
2021/06/09 13:10:00;;;;;;;;;;;25.80;99.90;;;;;;8341368;28;20208;-62
2021/06/09 13:14:05;;;;;;;;;;;25.20;99.90;;;;;;8329724;28;20275;-63
2021/06/09 13:18:08;;;;;;;;;;;25.20;99.90;;;;;;8344577;28;19913;-62
2021/06/09 13:22:09;;;;;;;;;;;25.00;99.90;;;;;;8336388;28;19913;-63
2021/06/09 13:26:10;;;;;;;;;;;26.40;99.90;;;;;;8337878;28;19929;-63
2021/06/09 13:30:12;;;;;;;;;;;28.80;99.90;;;;;;8337647;28;20035;-63
2021/06/09 13:34:13;;;;;;;;;;;30.70;98.80;;;;;;8344586;28;19912;-64
2021/06/09 13:38:13;;;;;;;;;;;29.90;99.00;;;;;;8335537;28;19945;-64
2021/06/09 13:42:15;;;;;;;;;;;32.10;94.10;;;;;;8330103;28;20378;-65
2021/06/09 13:46:16;;;;;;;;;;;35.90;78.10;;;;;;8339120;28;20287;-64
2021/06/09 13:50:19;;;;;;;;;;;39.80;60.90;;;;;;8342801;28;20279;-65
2021/06/09 13:54:39;;;;;;;;;;;39.40;53.50;;;;;;8340118;28;20155;-65
2021/06/09 13:58:39;;;;;;;;;;;34.40;59.70;;;;;;8326923;28;20199;-63
2021/06/09 14:02:44;;;;;;;;;;;28.70;80.30;;;;;;8318896;28;20455;-61
2021/06/09 14:06:45;;;;;;;;;;;26.40;93.30;;;;;;8324257;28;19913;-62
2021/06/09 14:10:52;;;;;;;;;;;25.80;97.90;;;;;;8325605;28;20326;-61
2021/06/09 14:14:53;;;;;;;;;;;25.30;99.90;;;;;;8336337;28;19913;-62
2021/06/09 14:18:53;;;;;;;;;;;25.50;98.40;;;;;;8327166;28;19975;-62
2021/06/09 14:22:55;;;;;;;;;;;24.90;99.60;;;;;;8318369;28;19921;-62
2021/06/09 14:26:57;;;;;;;;;;;24.60;99.90;;;;;;8335599;28;19913;-62
2021/06/09 14:30:59;;;;;;;;;;;24.60;99.90;;;;;;8348103;28;20375;-62
2021/06/09 14:35:10;;;;;;;;;;;25.10;99.80;;;;;;8348687;28;19913;-63
2021/06/09 14:39:13;;;;;;;;;;;25.50;98.60;;;;;;8341243;28;19920;-62
2021/06/09 14:43:14;;;;;;;;;;;25.30;96.80;;;;;;8344259;28;19924;-62
2021/06/09 14:47:23;;;;;;;;;;;25.10;98.10;;;;;;8353858;28;19919;-62
2021/06/09 14:51:27;;;;;;;;;;;24.90;98.80;;;;;;8328965;28;19913;-62
2021/06/09 14:55:27;;;;;;;;;;;24.80;99.90;;;;;;8343214;28;20019;-62
2021/06/09 14:59:28;;;;;;;;;;;24.80;99.90;;;;;;8343115;28;19970;-63
2021/06/09 15:03:28;;;;;;;;;;;24.80;99.90;;;;;;8346363;28;19913;-61
2021/06/09 15:07:29;;;;;;;;;;;24.80;99.90;;;;;;8343808;28;19995;-62
2021/06/09 15:11:29;;;;;;;;;;;24.90;99.90;;;;;;8341716;28;19967;-63
2021/06/09 15:15:30;;;;;;;;;;;25.00;99.90;;;;;;8353151;28;19952;-62
2021/06/09 15:19:31;;;;;;;;;;;24.90;99.90;;;;;;8354046;28;19913;-62
2021/06/09 15:23:31;;;;;;;;;;;24.90;99.90;;;;;;8332140;28;20298;-62
2021/06/09 15:27:32;;;;;;;;;;;24.90;99.90;;;;;;8339581;28;20370;-62
2021/06/09 15:31:33;;;;;;;;;;;25.10;99.90;;;;;;8329663;28;19919;-62
2021/06/09 15:35:34;;;;;;;;;;;25.10;99.90;;;;;;8326320;28;19985;-62
2021/06/09 15:39:35;;;;;;;;;;;25.40;99.90;;;;;;8342800;28;19924;-63
2021/06/09 15:43:35;;;;;;;;;;;25.60;99.90;;;;;;8335435;28;20026;-61
2021/06/09 15:47:36;;;;;;;;;;;26.00;99.00;;;;;;8335654;28;19913;-61
2021/06/09 15:51:37;;;;;;;;;;;26.00;99.90;;;;;;8341033;28;20712;-62
2021/06/09 15:55:38;;;;;;;;;;;26.40;98.90;;;;;;8338472;28;19951;-62
2021/06/09 15:59:38;;;;;;;;;;;27.00;96.10;;;;;;8328217;28;19925;-64
2021/06/09 16:03:39;;;;;;;;;;;27.80;94.90;;;;;;8328868;28;19924;-64
2021/06/09 16:07:40;;;;;;;;;;;28.90;94.10;;;;;;8331236;28;20324;-64
2021/06/09 16:11:41;;;;;;;;;;;29.50;92.00;;;;;;8348487;28;19921;-64
2021/06/09 16:15:42;;;;;;;;;;;28.80;90.50;;;;;;8349465;28;20042;-64
2021/06/09 16:19:43;;;;;;;;;;;28.40;92.20;;;;;;8361000;28;20336;-64
2021/06/09 16:23:43;;;;;;;;;;;28.10;91.80;;;;;;8335692;28;20286;-63
2021/06/09 16:27:44;;;;;;;;;;;29.30;91.30;;;;;;8340653;28;19919;-63
2021/06/09 16:31:45;;;;;;;;;;;29.30;93.10;;;;;;8359999;28;19920;-64
2021/06/09 16:35:46;;;;;;;;;;;28.30;94.90;;;;;;8348848;28;19913;-63
2021/06/09 16:39:46;;;;;;;;;;;27.70;96.40;;;;;;8350548;28;20031;-64
2021/06/09 16:43:47;;;;;;;;;;;27.50;98.00;;;;;;8333718;28;19948;-64
2021/06/09 16:47:48;;;;;;;;;;;27.50;96.40;;;;;;8319534;28;19932;-62
2021/06/09 16:51:50;;;;;;;;;;;27.10;97.40;;;;;;8322931;28;19913;-61
2021/06/09 17:00:00;;;;;;;;;;;25.80;98.90;;;;;;8339068;28;19917;-62
2021/06/09 17:04:01;;;;;;;;;;;25.30;99.90;;;;;;8325516;28;19924;-62
2021/06/09 17:08:01;;;;;;;;;;;24.90;99.90;;;;;;8330868;28;19917;-62
2021/06/09 17:12:02;;;;;;;;;;;24.60;99.90;;;;;;8310221;28;19924;-61
2021/06/09 17:16:04;;;;;;;;;;;24.20;99.90;;;;;;8309161;28;20282;-61
2021/06/09 17:20:06;;;;;;;;;;;23.70;99.90;;;;;;8327015;28;19916;-61
2021/06/09 17:24:07;;;;;;;;;;;23.50;99.90;;;;;;8332019;28;19924;-61
2021/06/09 17:28:07;;;;;;;;;;;23.50;99.90;;;;;;8320241;28;20337;-60
2021/06/09 17:32:08;;;;;;;;;;;23.10;99.90;;;;;;8320872;28;19935;-60
2021/06/09 17:36:10;;;;;;;;;;;23.30;99.90;;;;;;8324310;28;19913;-61
2021/06/09 17:40:11;;;;;;;;;;;23.20;99.90;;;;;;8322796;28;19913;-60
2021/06/09 17:44:11;;;;;;;;;;;22.70;99.90;;;;;;8318075;28;20060;-60
2021/06/09 17:48:12;;;;;;;;;;;22.20;99.90;;;;;;8319289;28;19966;-60
2021/06/09 17:52:13;;;;;;;;;;;21.90;99.90;;;;;;8313945;28;19921;-60
2021/06/09 17:56:13;;;;;;;;;;;21.60;99.90;;;;;;8305079;28;19929;-61
2021/06/09 18:00:17;;;;;;;;;;;21.40;99.90;;;;;;8313374;28;19925;-62
2021/06/09 18:04:17;;;;;;;;;;;21.20;99.90;;;;;;8316309;28;19940;-62
2021/06/09 18:08:18;;;;;;;;;;;21.00;99.90;;;;;;8318116;28;19963;-61
2021/06/09 18:12:19;;;;;;;;;;;21.10;99.90;;;;;;8321858;28;19914;-61
2021/06/09 18:16:20;;;;;;;;;;;21.00;99.90;;;;;;8320748;28;19917;-61
2021/06/09 18:20:20;;;;;;;;;;;20.90;99.90;;;;;;8313825;28;20574;-61
2021/06/09 18:24:21;;;;;;;;;;;20.80;99.90;;;;;;8316106;28;20578;-61
2021/06/09 18:28:21;;;;;;;;;;;20.80;99.90;;;;;;8317237;28;19976;-61
2021/06/09 18:32:22;;;;;;;;;;;20.50;99.90;;;;;;8319224;28;19913;-61
2021/06/09 18:36:23;;;;;;;;;;;20.40;99.90;;;;;;8319095;28;19933;-62
2021/06/09 18:40:24;;;;;;;;;;;20.60;99.90;;;;;;8301305;28;20568;-62
2021/06/09 18:44:25;;;;;;;;;;;20.20;99.90;;;;;;8316946;28;20410;-61
2021/06/09 18:48:26;;;;;;;;;;;20.00;99.90;;;;;;8317671;28;19979;-62
2021/06/09 18:52:26;;;;;;;;;;;19.70;99.90;;;;;;8315688;28;20415;-61
2021/06/09 18:56:27;;;;;;;;;;;19.40;99.90;;;;;;8309993;28;20319;-61
2021/06/09 19:00:31;;;;;;;;;;;19.30;99.90;;;;;;8313167;28;19998;-63
2021/06/09 19:04:31;;;;;;;;;;;19.30;99.90;;;;;;8325792;28;19921;-63
2021/06/09 19:08:32;;;;;;;;;;;19.30;99.90;;;;;;8333464;28;19913;-63
2021/06/09 19:12:33;;;;;;;;;;;19.30;99.90;;;;;;8317479;28;20260;-62
2021/06/09 19:16:35;;;;;;;;;;;19.10;99.90;;;;;;8314627;28;20430;-62
2021/06/09 19:20:36;;;;;;;;;;;18.90;99.90;;;;;;8318730;28;19913;-61
2021/06/09 19:24:36;;;;;;;;;;;18.70;99.90;;;;;;8323566;28;20015;-61
2021/06/09 19:28:37;;;;;;;;;;;18.60;99.90;;;;;;8317539;28;19991;-61
2021/06/09 19:32:37;;;;;;;;;;;18.40;99.90;;;;;;8326128;28;19975;-61
2021/06/09 19:36:38;;;;;;;;;;;18.10;99.90;;;;;;8325591;28;20560;-61
2021/06/09 19:40:39;;;;;;;;;;;18.30;99.90;;;;;;8324456;28;19928;-61
2021/06/09 19:44:40;;;;;;;;;;;17.90;99.90;;;;;;8320246;28;20375;-62
2021/06/09 19:48:40;;;;;;;;;;;17.60;99.90;;;;;;8323074;28;19959;-61
2021/06/09 19:52:41;;;;;;;;;;;17.40;99.90;;;;;;8325266;28;20435;-61
2021/06/09 19:56:41;;;;;;;;;;;17.40;99.90;;;;;;8316984;28;19924;-61
2021/06/09 20:00:44;;;;;;;;;;;17.70;99.90;;;;;;8313786;28;20391;-61
2021/06/09 20:04:44;;;;;;;;;;;17.40;99.90;;;;;;8319445;28;19933;-64
2021/06/09 20:08:45;;;;;;;;;;;17.40;99.90;;;;;;8395063;22;20401;-67
2021/06/09 20:12:46;;;;;;;;;;;17.50;99.90;;;;;;8370819;28;19964;-67
2021/06/09 20:16:46;;;;;;;;;;;17.20;99.90;;;;;;8374334;28;19917;-68
2021/06/09 20:20:47;;;;;;;;;;;17.20;99.90;;;;;;8373010;28;19967;-67
2021/06/09 20:24:53;;;;;;;;;;;16.90;99.90;;;;;;8368630;28;20484;-66
2021/06/09 20:28:53;;;;;;;;;;;16.90;99.90;;;;;;8381480;28;19920;-67
2021/06/09 20:32:55;;;;;;;;;;;16.90;99.90;;;;;;8368854;28;19994;-68
2021/06/09 20:36:56;;;;;;;;;;;16.80;99.90;;;;;;8376022;28;19966;-67
2021/06/09 20:40:56;;;;;;;;;;;16.90;99.90;;;;;;8374595;28;19917;-67
2021/06/09 20:44:57;;;;;;;;;;;16.70;99.90;;;;;;8372514;28;20062;-67
2021/06/09 20:48:57;;;;;;;;;;;16.50;99.90;;;;;;8376395;28;19915;-67
2021/06/09 20:52:58;;;;;;;;;;;16.30;99.90;;;;;;8368584;28;19924;-65
2021/06/09 20:56:58;;;;;;;;;;;16.10;99.90;;;;;;8367516;28;19942;-66
2021/06/09 21:00:59;;;;;;;;;;;16.00;99.90;;;;;;8379007;28;19923;-66
2021/06/09 21:04:59;;;;;;;;;;;16.00;99.90;;;;;;8383845;28;19943;-66
2021/06/09 21:09:01;;;;;;;;;;;16.00;99.90;;;;;;8370162;28;19923;-65
2021/06/09 21:13:04;;;;;;;;;;;15.80;99.90;;;;;;8337164;28;19909;-66
2021/06/09 21:17:05;;;;;;;;;;;15.80;99.90;;;;;;8351468;28;20322;-66
2021/06/09 21:21:06;;;;;;;;;;;15.80;99.90;;;;;;8360050;28;19917;-66
2021/06/09 21:25:07;;;;;;;;;;;15.70;99.90;;;;;;8358333;28;19917;-66
2021/06/09 21:29:09;;;;;;;;;;;15.70;99.90;;;;;;8373438;28;19917;-67
2021/06/09 21:33:10;;;;;;;;;;;15.40;99.90;;;;;;8375239;28;19919;-66
2021/06/09 21:37:10;;;;;;;;;;;15.50;99.90;;;;;;8363141;28;19912;-66
2021/06/09 21:41:11;;;;;;;;;;;15.60;99.90;;;;;;8355165;28;19915;-65
2021/06/09 21:45:12;;;;;;;;;;;15.80;99.90;;;;;;8357991;28;19919;-66
2021/06/09 21:49:12;;;;;;;;;;;15.60;99.90;;;;;;8357521;28;19915;-66
2021/06/09 21:53:13;;;;;;;;;;;15.70;99.90;;;;;;8358680;28;19916;-65
2021/06/09 21:57:13;;;;;;;;;;;15.60;99.90;;;;;;8358777;28;20332;-66
2021/06/09 22:01:16;;;;;;;;;;;15.30;99.90;;;;;;8357589;28;19908;-66
2021/06/09 22:05:16;;;;;;;;;;;15.40;99.90;;;;;;8358981;28;20336;-66
2021/06/09 22:09:18;;;;;;;;;;;15.30;99.90;;;;;;8358640;28;19967;-66
2021/06/09 22:13:19;;;;;;;;;;;15.50;99.90;;;;;;8353299;28;19940;-66
2021/06/09 22:17:19;;;;;;;;;;;15.30;99.90;;;;;;8358453;28;19943;-65
2021/06/09 22:21:20;;;;;;;;;;;15.10;99.90;;;;;;8358578;28;19909;-66
2021/06/09 22:25:20;;;;;;;;;;;15.10;99.90;;;;;;8358534;28;20015;-66
2021/06/09 22:29:21;;;;;;;;;;;15.10;99.90;;;;;;8358476;28;19913;-66
2021/06/09 22:33:22;;;;;;;;;;;15.10;99.90;;;;;;8358428;28;20030;-67
2021/06/09 22:37:22;;;;;;;;;;;15.00;99.90;;;;;;8358163;28;19913;-66
2021/06/09 22:41:22;;;;;;;;;;;15.00;99.90;;;;;;8358196;28;20279;-65
2021/06/09 22:45:23;;;;;;;;;;;15.00;99.90;;;;;;8339726;28;19975;-66
2021/06/09 22:49:23;;;;;;;;;;;14.90;99.90;;;;;;8347120;28;19978;-67
2021/06/09 22:53:24;;;;;;;;;;;14.90;99.90;;;;;;8354082;28;19909;-66
2021/06/09 22:57:25;;;;;;;;;;;14.80;99.90;;;;;;8364577;28;20130;-66
2021/06/09 23:01:25;;;;;;;;;;;15.10;99.90;;;;;;8364661;28;19971;-65
2021/06/09 23:05:26;;;;;;;;;;;15.20;99.90;;;;;;8364833;28;19978;-66
2021/06/09 23:09:26;;;;;;;;;;;15.20;99.90;;;;;;8364307;28;20413;-66
2021/06/09 23:13:29;;;;;;;;;;;15.30;99.90;;;;;;8364134;28;20337;-66
2021/06/09 23:17:29;;;;;;;;;;;15.00;99.90;;;;;;8363448;28;19947;-66
2021/06/09 23:21:30;;;;;;;;;;;14.90;99.90;;;;;;8363851;28;19913;-66
2021/06/09 23:25:30;;;;;;;;;;;14.80;99.90;;;;;;8363920;28;19966;-66
2021/06/09 23:29:31;;;;;;;;;;;14.60;99.90;;;;;;8363386;28;19909;-67